sensor_id;sensor_type;location;lat;lon;timestamp;P1;durP1;ratioP1;P2;durP2;ratioP2
3549;SDS011;45572;48.804;8.330;2023-03-17T00:01:17;2.75;;;1.40;;
3549;SDS011;45572;48.804;8.330;2023-03-17T00:03:46;3.10;;;2.08;;
3549;SDS011;45572;48.804;8.330;2023-03-17T00:06:17;4.45;;;3.00;;
3549;SDS011;45572;48.804;8.330;2023-03-17T00:08:50;6.60;;;2.42;;
3549;SDS011;45572;48.804;8.330;2023-03-17T00:11:19;5.20;;;2.25;;
3549;SDS011;45572;48.804;8.330;2023-03-17T00:13:49;8.05;;;2.72;;
3549;SDS011;45572;48.804;8.330;2023-03-17T00:16:19;4.32;;;2.38;;
3549;SDS011;45572;48.804;8.330;2023-03-17T00:18:52;5.40;;;2.40;;
3549;SDS011;45572;48.804;8.330;2023-03-17T00:21:22;4.72;;;2.22;;
3549;SDS011;45572;48.804;8.330;2023-03-17T00:23:53;3.15;;;1.50;;
3549;SDS011;45572;48.804;8.330;2023-03-17T00:26:21;5.88;;;2.70;;
3549;SDS011;45572;48.804;8.330;2023-03-17T00:28:50;7.97;;;3.17;;
3549;SDS011;45572;48.804;8.330;2023-03-17T00:31:21;3.22;;;2.05;;
3549;SDS011;45572;48.804;8.330;2023-03-17T00:33:52;3.25;;;2.15;;
3549;SDS011;45572;48.804;8.330;2023-03-17T00:36:21;5.40;;;2.28;;
3549;SDS011;45572;48.804;8.330;2023-03-17T00:38:50;7.40;;;2.65;;
3549;SDS011;45572;48.804;8.330;2023-03-17T00:41:19;4.78;;;2.20;;
3549;SDS011;45572;48.804;8.330;2023-03-17T00:43:47;3.85;;;1.98;;
3549;SDS011;45572;48.804;8.330;2023-03-17T00:46:17;4.88;;;2.80;;
3549;SDS011;45572;48.804;8.330;2023-03-17T00:48:50;5.75;;;2.75;;
3549;SDS011;45572;48.804;8.330;2023-03-17T00:51:19;3.70;;;2.08;;
3549;SDS011;45572;48.804;8.330;2023-03-17T00:53:48;3.00;;;1.73;;
3549;SDS011;45572;48.804;8.330;2023-03-17T00:56:19;4.10;;;2.33;;
3549;SDS011;45572;48.804;8.330;2023-03-17T00:58:47;2.50;;;1.75;;
3549;SDS011;45572;48.804;8.330;2023-03-17T01:01:15;3.10;;;1.50;;
3549;SDS011;45572;48.804;8.330;2023-03-17T01:03:47;2.08;;;1.65;;
3549;SDS011;45572;48.804;8.330;2023-03-17T01:06:14;3.15;;;1.40;;
3549;SDS011;45572;48.804;8.330;2023-03-17T01:08:43;1.98;;;1.38;;
3549;SDS011;45572;48.804;8.330;2023-03-17T01:11:13;2.47;;;2.25;;
3549;SDS011;45572;48.804;8.330;2023-03-17T01:13:45;4.47;;;2.33;;
3549;SDS011;45572;48.804;8.330;2023-03-17T01:16:13;2.67;;;0.90;;
3549;SDS011;45572;48.804;8.330;2023-03-17T01:18:42;10.35;;;1.75;;
3549;SDS011;45572;48.804;8.330;2023-03-17T01:21:12;2.20;;;1.52;;
3549;SDS011;45572;48.804;8.330;2023-03-17T01:23:40;1.88;;;1.08;;
3549;SDS011;45572;48.804;8.330;2023-03-17T01:26:09;3.53;;;1.63;;
3549;SDS011;45572;48.804;8.330;2023-03-17T01:28:36;3.90;;;1.20;;
3549;SDS011;45572;48.804;8.330;2023-03-17T01:31:04;2.72;;;1.40;;
3549;SDS011;45572;48.804;8.330;2023-03-17T01:33:32;1.90;;;1.20;;
3549;SDS011;45572;48.804;8.330;2023-03-17T01:36:00;1.75;;;1.00;;
3549;SDS011;45572;48.804;8.330;2023-03-17T01:38:29;2.10;;;1.60;;
3549;SDS011;45572;48.804;8.330;2023-03-17T01:40:57;6.10;;;1.55;;
3549;SDS011;45572;48.804;8.330;2023-03-17T01:43:27;3.78;;;1.70;;
3549;SDS011;45572;48.804;8.330;2023-03-17T01:48:57;6.28;;;1.50;;
3549;SDS011;45572;48.804;8.330;2023-03-17T01:51:31;6.20;;;1.45;;
3549;SDS011;45572;48.804;8.330;2023-03-17T01:54:05;2.60;;;1.60;;
3549;SDS011;45572;48.804;8.330;2023-03-17T01:56:35;4.72;;;1.75;;
3549;SDS011;45572;48.804;8.330;2023-03-17T01:59:08;3.50;;;2.50;;
3549;SDS011;45572;48.804;8.330;2023-03-17T02:01:41;2.53;;;1.30;;
3549;SDS011;45572;48.804;8.330;2023-03-17T02:04:13;3.88;;;1.98;;
3549;SDS011;45572;48.804;8.330;2023-03-17T02:06:46;1.45;;;0.98;;
3549;SDS011;45572;48.804;8.330;2023-03-17T02:09:25;3.10;;;1.60;;
3549;SDS011;45572;48.804;8.330;2023-03-17T02:11:54;4.15;;;1.40;;
3549;SDS011;45572;48.804;8.330;2023-03-17T02:14:23;2.58;;;1.40;;
3549;SDS011;45572;48.804;8.330;2023-03-17T02:16:51;4.38;;;1.85;;
3549;SDS011;45572;48.804;8.330;2023-03-17T02:19:19;3.13;;;1.20;;
3549;SDS011;45572;48.804;8.330;2023-03-17T02:21:49;2.63;;;1.50;;
3549;SDS011;45572;48.804;8.330;2023-03-17T02:24:20;3.05;;;1.20;;
3549;SDS011;45572;48.804;8.330;2023-03-17T02:26:53;6.68;;;2.20;;
3549;SDS011;45572;48.804;8.330;2023-03-17T02:29:24;8.27;;;1.80;;
3549;SDS011;45572;48.804;8.330;2023-03-17T02:31:52;1.60;;;1.20;;
3549;SDS011;45572;48.804;8.330;2023-03-17T02:34:21;4.22;;;1.45;;
3549;SDS011;45572;48.804;8.330;2023-03-17T02:36:50;2.88;;;1.50;;
3549;SDS011;45572;48.804;8.330;2023-03-17T02:39:20;3.20;;;1.45;;
3549;SDS011;45572;48.804;8.330;2023-03-17T02:41:49;2.13;;;1.00;;
3549;SDS011;45572;48.804;8.330;2023-03-17T02:44:18;1.42;;;1.30;;
3549;SDS011;45572;48.804;8.330;2023-03-17T02:46:46;2.83;;;1.45;;
3549;SDS011;45572;48.804;8.330;2023-03-17T02:49:14;4.93;;;1.95;;
3549;SDS011;45572;48.804;8.330;2023-03-17T02:51:42;3.50;;;1.63;;
3549;SDS011;45572;48.804;8.330;2023-03-17T02:54:11;7.95;;;2.03;;
3549;SDS011;45572;48.804;8.330;2023-03-17T02:56:39;2.10;;;1.50;;
3549;SDS011;45572;48.804;8.330;2023-03-17T02:59:07;2.78;;;1.65;;
3549;SDS011;45572;48.804;8.330;2023-03-17T03:01:35;3.28;;;1.98;;
3549;SDS011;45572;48.804;8.330;2023-03-17T03:04:04;3.42;;;1.38;;
3549;SDS011;45572;48.804;8.330;2023-03-17T03:06:32;3.08;;;1.83;;
3549;SDS011;45572;48.804;8.330;2023-03-17T03:09:00;5.00;;;2.20;;
3549;SDS011;45572;48.804;8.330;2023-03-17T03:11:30;5.78;;;2.00;;
3549;SDS011;45572;48.804;8.330;2023-03-17T03:13:58;4.20;;;1.52;;
3549;SDS011;45572;48.804;8.330;2023-03-17T03:16:26;2.60;;;1.27;;
3549;SDS011;45572;48.804;8.330;2023-03-17T03:18:54;5.45;;;1.85;;
3549;SDS011;45572;48.804;8.330;2023-03-17T03:21:21;3.55;;;1.40;;
3549;SDS011;45572;48.804;8.330;2023-03-17T03:23:49;1.75;;;1.35;;
3549;SDS011;45572;48.804;8.330;2023-03-17T03:26:17;4.78;;;1.77;;
3549;SDS011;45572;48.804;8.330;2023-03-17T03:28:46;11.55;;;2.15;;
3549;SDS011;45572;48.804;8.330;2023-03-17T03:31:14;5.00;;;1.98;;
3549;SDS011;45572;48.804;8.330;2023-03-17T03:33:42;2.90;;;1.90;;
3549;SDS011;45572;48.804;8.330;2023-03-17T03:36:10;4.53;;;1.75;;
3549;SDS011;45572;48.804;8.330;2023-03-17T03:38:38;3.22;;;1.58;;
3549;SDS011;45572;48.804;8.330;2023-03-17T03:41:06;3.25;;;1.13;;
3549;SDS011;45572;48.804;8.330;2023-03-17T03:43:35;6.45;;;2.10;;
3549;SDS011;45572;48.804;8.330;2023-03-17T03:46:04;2.15;;;1.20;;
3549;SDS011;45572;48.804;8.330;2023-03-17T03:48:32;3.97;;;1.98;;
3549;SDS011;45572;48.804;8.330;2023-03-17T03:51:01;5.03;;;1.55;;
3549;SDS011;45572;48.804;8.330;2023-03-17T03:53:29;5.20;;;1.60;;
3549;SDS011;45572;48.804;8.330;2023-03-17T03:55:57;5.70;;;2.47;;
3549;SDS011;45572;48.804;8.330;2023-03-17T03:58:25;2.33;;;1.25;;
3549;SDS011;45572;48.804;8.330;2023-03-17T04:00:53;2.53;;;1.17;;
3549;SDS011;45572;48.804;8.330;2023-03-17T04:03:22;3.95;;;2.03;;
3549;SDS011;45572;48.804;8.330;2023-03-17T04:05:49;2.05;;;1.45;;
3549;SDS011;45572;48.804;8.330;2023-03-17T04:08:17;5.57;;;1.52;;
3549;SDS011;45572;48.804;8.330;2023-03-17T04:10:45;4.30;;;1.85;;
3549;SDS011;45572;48.804;8.330;2023-03-17T04:13:13;2.10;;;1.13;;
3549;SDS011;45572;48.804;8.330;2023-03-17T04:15:41;2.67;;;1.75;;
3549;SDS011;45572;48.804;8.330;2023-03-17T04:18:08;2.63;;;1.92;;
3549;SDS011;45572;48.804;8.330;2023-03-17T04:20:37;5.35;;;1.40;;
3549;SDS011;45572;48.804;8.330;2023-03-17T04:23:05;1.40;;;1.15;;
3549;SDS011;45572;48.804;8.330;2023-03-17T04:25:33;4.53;;;1.90;;
3549;SDS011;45572;48.804;8.330;2023-03-17T04:28:01;1.90;;;1.30;;
3549;SDS011;45572;48.804;8.330;2023-03-17T04:30:29;3.05;;;0.95;;
3549;SDS011;45572;48.804;8.330;2023-03-17T04:32:58;1.83;;;1.25;;
3549;SDS011;45572;48.804;8.330;2023-03-17T04:35:26;4.10;;;1.92;;
3549;SDS011;45572;48.804;8.330;2023-03-17T04:37:55;4.32;;;1.65;;
3549;SDS011;45572;48.804;8.330;2023-03-17T04:40:22;3.28;;;1.27;;
3549;SDS011;45572;48.804;8.330;2023-03-17T04:42:50;3.05;;;1.40;;
3549;SDS011;45572;48.804;8.330;2023-03-17T04:45:18;3.10;;;1.52;;
3549;SDS011;45572;48.804;8.330;2023-03-17T04:47:46;4.75;;;1.80;;
3549;SDS011;45572;48.804;8.330;2023-03-17T04:50:14;2.45;;;1.70;;
3549;SDS011;45572;48.804;8.330;2023-03-17T04:52:43;4.32;;;1.50;;
3549;SDS011;45572;48.804;8.330;2023-03-17T04:55:12;4.18;;;1.52;;
3549;SDS011;45572;48.804;8.330;2023-03-17T04:57:39;5.88;;;1.77;;
3549;SDS011;45572;48.804;8.330;2023-03-17T05:00:07;1.90;;;1.08;;
3549;SDS011;45572;48.804;8.330;2023-03-17T05:02:37;1.48;;;0.90;;
3549;SDS011;45572;48.804;8.330;2023-03-17T05:05:05;2.03;;;1.17;;
3549;SDS011;45572;48.804;8.330;2023-03-17T05:07:33;5.80;;;1.50;;
3549;SDS011;45572;48.804;8.330;2023-03-17T05:10:01;3.95;;;1.40;;
3549;SDS011;45572;48.804;8.330;2023-03-17T05:12:30;3.03;;;1.63;;
3549;SDS011;45572;48.804;8.330;2023-03-17T05:14:58;4.82;;;1.85;;
3549;SDS011;45572;48.804;8.330;2023-03-17T05:17:26;1.90;;;1.33;;
3549;SDS011;45572;48.804;8.330;2023-03-17T05:19:54;5.85;;;1.50;;
3549;SDS011;45572;48.804;8.330;2023-03-17T05:22:21;2.20;;;1.35;;
3549;SDS011;45572;48.804;8.330;2023-03-17T05:24:49;1.67;;;1.20;;
3549;SDS011;45572;48.804;8.330;2023-03-17T05:27:17;5.78;;;2.03;;
3549;SDS011;45572;48.804;8.330;2023-03-17T05:29:49;2.58;;;1.73;;
3549;SDS011;45572;48.804;8.330;2023-03-17T05:32:16;1.67;;;1.40;;
3549;SDS011;45572;48.804;8.330;2023-03-17T05:34:46;1.70;;;1.42;;
3549;SDS011;45572;48.804;8.330;2023-03-17T05:37:14;1.75;;;1.35;;
3549;SDS011;45572;48.804;8.330;2023-03-17T05:39:42;2.30;;;1.25;;
3549;SDS011;45572;48.804;8.330;2023-03-17T05:42:10;2.53;;;1.30;;
3549;SDS011;45572;48.804;8.330;2023-03-17T05:44:39;2.22;;;1.30;;
3549;SDS011;45572;48.804;8.330;2023-03-17T05:47:08;4.65;;;2.50;;
3549;SDS011;45572;48.804;8.330;2023-03-17T05:49:35;5.20;;;1.50;;
3549;SDS011;45572;48.804;8.330;2023-03-17T05:52:03;2.63;;;1.50;;
3549;SDS011;45572;48.804;8.330;2023-03-17T05:54:32;3.13;;;1.23;;
3549;SDS011;45572;48.804;8.330;2023-03-17T05:57:00;2.42;;;1.48;;
3549;SDS011;45572;48.804;8.330;2023-03-17T05:59:29;2.65;;;1.63;;
3549;SDS011;45572;48.804;8.330;2023-03-17T06:01:58;3.90;;;1.40;;
3549;SDS011;45572;48.804;8.330;2023-03-17T06:04:33;1.70;;;1.27;;
3549;SDS011;45572;48.804;8.330;2023-03-17T06:07:02;2.92;;;1.75;;
3549;SDS011;45572;48.804;8.330;2023-03-17T06:09:31;1.95;;;1.30;;
3549;SDS011;45572;48.804;8.330;2023-03-17T06:11:59;2.85;;;1.70;;
3549;SDS011;45572;48.804;8.330;2023-03-17T06:14:28;3.95;;;1.75;;
3549;SDS011;45572;48.804;8.330;2023-03-17T06:16:57;2.40;;;1.83;;
3549;SDS011;45572;48.804;8.330;2023-03-17T06:19:24;2.78;;;1.63;;
3549;SDS011;45572;48.804;8.330;2023-03-17T06:21:54;2.90;;;2.00;;
3549;SDS011;45572;48.804;8.330;2023-03-17T06:24:22;3.15;;;2.30;;
3549;SDS011;45572;48.804;8.330;2023-03-17T06:26:50;3.50;;;2.50;;
3549;SDS011;45572;48.804;8.330;2023-03-17T06:29:19;4.50;;;2.83;;
3549;SDS011;45572;48.804;8.330;2023-03-17T06:31:49;5.10;;;3.10;;
3549;SDS011;45572;48.804;8.330;2023-03-17T06:34:19;5.50;;;3.15;;
3549;SDS011;45572;48.804;8.330;2023-03-17T06:36:48;4.15;;;2.88;;
3549;SDS011;45572;48.804;8.330;2023-03-17T06:39:17;8.43;;;2.80;;
3549;SDS011;45572;48.804;8.330;2023-03-17T06:41:46;4.97;;;2.63;;
3549;SDS011;45572;48.804;8.330;2023-03-17T06:44:14;4.20;;;2.60;;
3549;SDS011;45572;48.804;8.330;2023-03-17T06:46:42;3.55;;;2.25;;
3549;SDS011;45572;48.804;8.330;2023-03-17T06:49:10;4.05;;;1.80;;
3549;SDS011;45572;48.804;8.330;2023-03-17T06:51:39;2.22;;;1.55;;
3549;SDS011;45572;48.804;8.330;2023-03-17T06:54:07;2.70;;;1.60;;
3549;SDS011;45572;48.804;8.330;2023-03-17T06:56:39;3.15;;;1.80;;
3549;SDS011;45572;48.804;8.330;2023-03-17T06:59:08;3.08;;;1.70;;
3549;SDS011;45572;48.804;8.330;2023-03-17T07:01:37;3.75;;;2.40;;
3549;SDS011;45572;48.804;8.330;2023-03-17T07:04:07;7.72;;;4.90;;
3549;SDS011;45572;48.804;8.330;2023-03-17T07:06:34;7.90;;;5.40;;
3549;SDS011;45572;48.804;8.330;2023-03-17T07:09:04;8.80;;;5.15;;
3549;SDS011;45572;48.804;8.330;2023-03-17T07:11:36;9.32;;;4.45;;
3549;SDS011;45572;48.804;8.330;2023-03-17T07:14:06;9.52;;;4.93;;
3549;SDS011;45572;48.804;8.330;2023-03-17T07:16:34;14.88;;;4.95;;
3549;SDS011;45572;48.804;8.330;2023-03-17T07:19:02;2.53;;;1.98;;
3549;SDS011;45572;48.804;8.330;2023-03-17T07:21:32;1.75;;;1.38;;
3549;SDS011;45572;48.804;8.330;2023-03-17T07:24:00;2.38;;;1.50;;
3549;SDS011;45572;48.804;8.330;2023-03-17T07:26:29;3.97;;;1.55;;
3549;SDS011;45572;48.804;8.330;2023-03-17T07:28:57;3.22;;;1.30;;
3549;SDS011;45572;48.804;8.330;2023-03-17T07:31:27;2.40;;;1.33;;
3549;SDS011;45572;48.804;8.330;2023-03-17T07:33:55;5.70;;;1.90;;
3549;SDS011;45572;48.804;8.330;2023-03-17T07:36:23;3.45;;;0.82;;
3549;SDS011;45572;48.804;8.330;2023-03-17T07:38:51;4.75;;;1.65;;
3549;SDS011;45572;48.804;8.330;2023-03-17T07:41:19;2.87;;;1.03;;
3549;SDS011;45572;48.804;8.330;2023-03-17T07:43:47;3.33;;;1.30;;
3549;SDS011;45572;48.804;8.330;2023-03-17T07:46:15;2.17;;;0.90;;
3549;SDS011;45572;48.804;8.330;2023-03-17T07:48:46;2.90;;;1.60;;
3549;SDS011;45572;48.804;8.330;2023-03-17T07:51:17;2.43;;;0.90;;
3549;SDS011;45572;48.804;8.330;2023-03-17T07:53:47;3.93;;;1.23;;
3549;SDS011;45572;48.804;8.330;2023-03-17T07:56:17;1.40;;;1.03;;
3549;SDS011;45572;48.804;8.330;2023-03-17T07:58:44;1.60;;;1.10;;
3549;SDS011;45572;48.804;8.330;2023-03-17T08:01:13;2.03;;;1.40;;
3549;SDS011;45572;48.804;8.330;2023-03-17T08:03:41;4.60;;;1.10;;
3549;SDS011;45572;48.804;8.330;2023-03-17T08:06:10;1.23;;;0.80;;
3549;SDS011;45572;48.804;8.330;2023-03-17T08:08:38;1.30;;;0.70;;
3549;SDS011;45572;48.804;8.330;2023-03-17T08:11:06;2.27;;;1.77;;
3549;SDS011;45572;48.804;8.330;2023-03-17T08:13:34;4.17;;;1.20;;
3549;SDS011;45572;48.804;8.330;2023-03-17T08:16:02;1.90;;;1.00;;
3549;SDS011;45572;48.804;8.330;2023-03-17T08:18:30;1.40;;;1.10;;
3549;SDS011;45572;48.804;8.330;2023-03-17T08:21:02;2.50;;;1.37;;
3549;SDS011;45572;48.804;8.330;2023-03-17T08:23:34;1.70;;;1.00;;
3549;SDS011;45572;48.804;8.330;2023-03-17T08:26:04;2.60;;;1.00;;
3549;SDS011;45572;48.804;8.330;2023-03-17T08:28:33;1.77;;;1.27;;
3549;SDS011;45572;48.804;8.330;2023-03-17T08:31:07;2.90;;;1.20;;
3549;SDS011;45572;48.804;8.330;2023-03-17T08:33:39;2.37;;;1.17;;
3549;SDS011;45572;48.804;8.330;2023-03-17T08:36:08;2.23;;;0.60;;
3549;SDS011;45572;48.804;8.330;2023-03-17T08:38:41;2.30;;;1.30;;
3549;SDS011;45572;48.804;8.330;2023-03-17T08:41:11;1.67;;;0.97;;
3549;SDS011;45572;48.804;8.330;2023-03-17T08:43:40;1.47;;;0.97;;
3549;SDS011;45572;48.804;8.330;2023-03-17T08:46:12;2.37;;;1.07;;
3549;SDS011;45572;48.804;8.330;2023-03-17T08:48:43;2.00;;;1.03;;
3549;SDS011;45572;48.804;8.330;2023-03-17T08:51:12;1.80;;;1.27;;
3549;SDS011;45572;48.804;8.330;2023-03-17T08:53:44;1.50;;;0.80;;
3549;SDS011;45572;48.804;8.330;2023-03-17T08:56:13;2.20;;;1.00;;
3549;SDS011;45572;48.804;8.330;2023-03-17T08:58:42;1.73;;;0.87;;
3549;SDS011;45572;48.804;8.330;2023-03-17T09:01:11;1.63;;;1.40;;
3549;SDS011;45572;48.804;8.330;2023-03-17T09:03:39;3.07;;;1.50;;
3549;SDS011;45572;48.804;8.330;2023-03-17T09:06:07;2.03;;;1.30;;
3549;SDS011;45572;48.804;8.330;2023-03-17T09:08:38;2.03;;;1.47;;
3549;SDS011;45572;48.804;8.330;2023-03-17T09:11:12;1.93;;;1.00;;
3549;SDS011;45572;48.804;8.330;2023-03-17T09:13:41;5.43;;;1.33;;
3549;SDS011;45572;48.804;8.330;2023-03-17T09:16:09;1.67;;;1.20;;
3549;SDS011;45572;48.804;8.330;2023-03-17T09:18:37;5.30;;;2.20;;
3549;SDS011;45572;48.804;8.330;2023-03-17T09:21:05;4.83;;;1.70;;
3549;SDS011;45572;48.804;8.330;2023-03-17T09:23:34;2.03;;;1.50;;
3549;SDS011;45572;48.804;8.330;2023-03-17T09:26:02;2.23;;;1.30;;
3549;SDS011;45572;48.804;8.330;2023-03-17T09:28:31;2.60;;;1.93;;
3549;SDS011;45572;48.804;8.330;2023-03-17T09:31:02;3.70;;;1.90;;
3549;SDS011;45572;48.804;8.330;2023-03-17T09:33:33;3.30;;;1.80;;
3549;SDS011;45572;48.804;8.330;2023-03-17T09:36:02;2.70;;;1.80;;
3549;SDS011;45572;48.804;8.330;2023-03-17T09:38:30;5.70;;;1.70;;
3549;SDS011;45572;48.804;8.330;2023-03-17T09:41:03;4.30;;;2.27;;
3549;SDS011;45572;48.804;8.330;2023-03-17T09:43:46;3.93;;;2.13;;
3549;SDS011;45572;48.804;8.330;2023-03-17T09:46:24;3.00;;;2.10;;
3549;SDS011;45572;48.804;8.330;2023-03-17T09:49:10;2.50;;;1.77;;
3549;SDS011;45572;48.804;8.330;2023-03-17T09:51:41;2.97;;;1.83;;
3549;SDS011;45572;48.804;8.330;2023-03-17T09:54:17;2.83;;;1.90;;
3549;SDS011;45572;48.804;8.330;2023-03-17T09:56:53;6.13;;;2.40;;
3549;SDS011;45572;48.804;8.330;2023-03-17T09:59:29;2.93;;;1.90;;
3549;SDS011;45572;48.804;8.330;2023-03-17T10:02:00;3.37;;;2.10;;
3549;SDS011;45572;48.804;8.330;2023-03-17T10:04:30;2.60;;;2.17;;
3549;SDS011;45572;48.804;8.330;2023-03-17T10:06:59;2.50;;;1.80;;
3549;SDS011;45572;48.804;8.330;2023-03-17T10:09:33;3.63;;;1.97;;
3549;SDS011;45572;48.804;8.330;2023-03-17T10:12:07;3.67;;;2.30;;
3549;SDS011;45572;48.804;8.330;2023-03-17T10:14:43;5.00;;;2.30;;
3549;SDS011;45572;48.804;8.330;2023-03-17T10:17:20;5.07;;;2.43;;
3549;SDS011;45572;48.804;8.330;2023-03-17T10:19:53;7.50;;;2.40;;
3549;SDS011;45572;48.804;8.330;2023-03-17T10:22:27;4.70;;;2.90;;
3549;SDS011;45572;48.804;8.330;2023-03-17T10:25:00;5.27;;;2.70;;
3549;SDS011;45572;48.804;8.330;2023-03-17T10:27:33;3.80;;;2.77;;
3549;SDS011;45572;48.804;8.330;2023-03-17T10:30:09;3.30;;;2.30;;
3549;SDS011;45572;48.804;8.330;2023-03-17T10:32:41;3.30;;;1.67;;
3549;SDS011;45572;48.804;8.330;2023-03-17T10:35:12;4.20;;;1.80;;
3549;SDS011;45572;48.804;8.330;2023-03-17T10:37:42;2.30;;;1.33;;
3549;SDS011;45572;48.804;8.330;2023-03-17T10:40:18;4.00;;;2.20;;
3549;SDS011;45572;48.804;8.330;2023-03-17T10:42:51;2.53;;;2.10;;
3549;SDS011;45572;48.804;8.330;2023-03-17T10:45:26;4.30;;;2.37;;
3549;SDS011;45572;48.804;8.330;2023-03-17T10:47:56;3.13;;;2.17;;
3549;SDS011;45572;48.804;8.330;2023-03-17T10:50:28;2.63;;;2.10;;
3549;SDS011;45572;48.804;8.330;2023-03-17T10:53:00;4.00;;;2.07;;
3549;SDS011;45572;48.804;8.330;2023-03-17T10:55:39;6.47;;;2.10;;
3549;SDS011;45572;48.804;8.330;2023-03-17T10:58:12;4.83;;;2.20;;
3549;SDS011;45572;48.804;8.330;2023-03-17T11:00:50;1.87;;;1.40;;
3549;SDS011;45572;48.804;8.330;2023-03-17T11:03:26;4.00;;;2.17;;
3549;SDS011;45572;48.804;8.330;2023-03-17T11:06:03;2.93;;;1.77;;
3549;SDS011;45572;48.804;8.330;2023-03-17T11:08:44;4.17;;;1.80;;
3549;SDS011;45572;48.804;8.330;2023-03-17T11:11:23;4.47;;;2.10;;
3549;SDS011;45572;48.804;8.330;2023-03-17T11:14:00;3.60;;;2.07;;
3549;SDS011;45572;48.804;8.330;2023-03-17T11:16:33;2.77;;;1.90;;
3549;SDS011;45572;48.804;8.330;2023-03-17T11:19:04;3.40;;;2.50;;
3549;SDS011;45572;48.804;8.330;2023-03-17T11:21:42;3.77;;;2.30;;
3549;SDS011;45572;48.804;8.330;2023-03-17T11:24:23;5.23;;;2.57;;
3549;SDS011;45572;48.804;8.330;2023-03-17T11:27:01;5.50;;;2.50;;
3549;SDS011;45572;48.804;8.330;2023-03-17T11:29:43;4.90;;;2.40;;
3549;SDS011;45572;48.804;8.330;2023-03-17T11:32:25;3.40;;;2.33;;
3549;SDS011;45572;48.804;8.330;2023-03-17T11:35:02;4.50;;;2.70;;
3549;SDS011;45572;48.804;8.330;2023-03-17T11:37:56;5.87;;;2.90;;
3549;SDS011;45572;48.804;8.330;2023-03-17T11:40:34;9.90;;;3.10;;
3549;SDS011;45572;48.804;8.330;2023-03-17T11:43:17;4.23;;;3.07;;
3549;SDS011;45572;48.804;8.330;2023-03-17T11:45:55;4.00;;;3.20;;
3549;SDS011;45572;48.804;8.330;2023-03-17T11:48:38;7.27;;;2.80;;
3549;SDS011;45572;48.804;8.330;2023-03-17T11:51:16;6.20;;;3.63;;
3549;SDS011;45572;48.804;8.330;2023-03-17T11:53:59;6.60;;;2.67;;
3549;SDS011;45572;48.804;8.330;2023-03-17T11:56:36;4.73;;;2.77;;
3549;SDS011;45572;48.804;8.330;2023-03-17T11:59:16;3.60;;;2.63;;
3549;SDS011;45572;48.804;8.330;2023-03-17T12:01:53;6.23;;;3.90;;
3549;SDS011;45572;48.804;8.330;2023-03-17T12:04:27;7.17;;;3.00;;
3549;SDS011;45572;48.804;8.330;2023-03-17T12:07:02;3.93;;;2.30;;
3549;SDS011;45572;48.804;8.330;2023-03-17T12:09:37;4.30;;;3.00;;
3549;SDS011;45572;48.804;8.330;2023-03-17T12:12:08;5.70;;;3.63;;
3549;SDS011;45572;48.804;8.330;2023-03-17T12:14:42;4.97;;;2.50;;
3549;SDS011;45572;48.804;8.330;2023-03-17T12:17:15;5.30;;;3.60;;
3549;SDS011;45572;48.804;8.330;2023-03-17T12:19:53;4.00;;;2.87;;
3549;SDS011;45572;48.804;8.330;2023-03-17T12:22:30;4.53;;;3.33;;
3549;SDS011;45572;48.804;8.330;2023-03-17T12:25:08;6.17;;;2.60;;
3549;SDS011;45572;48.804;8.330;2023-03-17T12:27:40;5.13;;;3.10;;
3549;SDS011;45572;48.804;8.330;2023-03-17T12:30:15;6.33;;;3.10;;
3549;SDS011;45572;48.804;8.330;2023-03-17T12:32:51;4.97;;;2.77;;
3549;SDS011;45572;48.804;8.330;2023-03-17T12:35:27;7.90;;;3.73;;
3549;SDS011;45572;48.804;8.330;2023-03-17T12:37:57;5.03;;;2.90;;
3549;SDS011;45572;48.804;8.330;2023-03-17T12:40:29;7.07;;;3.50;;
3549;SDS011;45572;48.804;8.330;2023-03-17T12:43:16;5.30;;;3.67;;
3549;SDS011;45572;48.804;8.330;2023-03-17T12:46:03;8.40;;;2.70;;
3549;SDS011;45572;48.804;8.330;2023-03-17T12:48:49;4.10;;;2.70;;
3549;SDS011;45572;48.804;8.330;2023-03-17T12:51:35;3.57;;;2.57;;
3549;SDS011;45572;48.804;8.330;2023-03-17T12:54:17;6.03;;;3.07;;
3549;SDS011;45572;48.804;8.330;2023-03-17T12:56:49;5.30;;;3.10;;
3549;SDS011;45572;48.804;8.330;2023-03-17T12:59:17;5.30;;;2.80;;
3549;SDS011;45572;48.804;8.330;2023-03-17T13:01:54;5.40;;;2.50;;
3549;SDS011;45572;48.804;8.330;2023-03-17T13:04:24;5.57;;;2.73;;
3549;SDS011;45572;48.804;8.330;2023-03-17T13:06:56;7.30;;;2.90;;
3549;SDS011;45572;48.804;8.330;2023-03-17T13:09:34;6.00;;;3.20;;
3549;SDS011;45572;48.804;8.330;2023-03-17T13:15:19;5.50;;;3.33;;
3549;SDS011;45572;48.804;8.330;2023-03-17T13:17:48;6.50;;;3.30;;
3549;SDS011;45572;48.804;8.330;2023-03-17T13:20:17;4.93;;;3.30;;
3549;SDS011;45572;48.804;8.330;2023-03-17T13:25:46;4.30;;;2.67;;
3549;SDS011;45572;48.804;8.330;2023-03-17T13:28:23;4.53;;;2.53;;
3549;SDS011;45572;48.804;8.330;2023-03-17T13:31:05;4.27;;;2.93;;
3549;SDS011;45572;48.804;8.330;2023-03-17T13:33:39;4.83;;;2.20;;
3549;SDS011;45572;48.804;8.330;2023-03-17T13:36:15;6.90;;;2.97;;
3549;SDS011;45572;48.804;8.330;2023-03-17T13:39:02;4.63;;;2.27;;
3549;SDS011;45572;48.804;8.330;2023-03-17T13:41:55;4.10;;;2.27;;
3549;SDS011;45572;48.804;8.330;2023-03-17T13:47:34;3.37;;;1.70;;
3549;SDS011;45572;48.804;8.330;2023-03-17T13:50:06;3.57;;;2.13;;
3549;SDS011;45572;48.804;8.330;2023-03-17T13:52:40;3.17;;;2.87;;
3549;SDS011;45572;48.804;8.330;2023-03-17T14:00:48;3.00;;;1.40;;
3549;SDS011;45572;48.804;8.330;2023-03-17T14:03:26;3.50;;;1.90;;
3549;SDS011;45572;48.804;8.330;2023-03-17T14:06:01;5.63;;;1.87;;
3549;SDS011;45572;48.804;8.330;2023-03-17T14:08:32;8.10;;;1.90;;
3549;SDS011;45572;48.804;8.330;2023-03-17T14:11:03;4.10;;;2.37;;
3549;SDS011;45572;48.804;8.330;2023-03-17T14:13:42;4.10;;;1.70;;
3549;SDS011;45572;48.804;8.330;2023-03-17T14:16:14;4.77;;;2.00;;
3549;SDS011;45572;48.804;8.330;2023-03-17T14:18:50;4.70;;;2.00;;
3549;SDS011;45572;48.804;8.330;2023-03-17T14:21:24;2.60;;;1.80;;
3549;SDS011;45572;48.804;8.330;2023-03-17T14:23:58;2.50;;;1.83;;
3549;SDS011;45572;48.804;8.330;2023-03-17T14:26:29;2.03;;;1.30;;
3549;SDS011;45572;48.804;8.330;2023-03-17T14:28:58;5.90;;;1.60;;
3549;SDS011;45572;48.804;8.330;2023-03-17T14:31:27;2.00;;;1.60;;
3549;SDS011;45572;48.804;8.330;2023-03-17T14:33:59;3.70;;;1.97;;
3549;SDS011;45572;48.804;8.330;2023-03-17T14:36:27;3.30;;;1.90;;
3549;SDS011;45572;48.804;8.330;2023-03-17T14:38:59;3.57;;;1.83;;
3549;SDS011;45572;48.804;8.330;2023-03-17T14:41:28;4.33;;;2.07;;
3549;SDS011;45572;48.804;8.330;2023-03-17T14:43:59;4.43;;;1.77;;
3549;SDS011;45572;48.804;8.330;2023-03-17T14:46:29;2.30;;;1.83;;
3549;SDS011;45572;48.804;8.330;2023-03-17T14:48:59;3.97;;;1.70;;
3549;SDS011;45572;48.804;8.330;2023-03-17T14:51:29;5.90;;;2.20;;
3549;SDS011;45572;48.804;8.330;2023-03-17T14:54:01;4.63;;;2.60;;
3549;SDS011;45572;48.804;8.330;2023-03-17T14:56:34;3.50;;;1.57;;
3549;SDS011;45572;48.804;8.330;2023-03-17T14:59:05;4.13;;;1.97;;
3549;SDS011;45572;48.804;8.330;2023-03-17T15:01:43;4.40;;;2.00;;
3549;SDS011;45572;48.804;8.330;2023-03-17T15:04:14;2.30;;;1.30;;
3549;SDS011;45572;48.804;8.330;2023-03-17T15:06:46;2.17;;;1.67;;
3549;SDS011;45572;48.804;8.330;2023-03-17T15:09:17;3.13;;;2.07;;
3549;SDS011;45572;48.804;8.330;2023-03-17T15:11:47;3.17;;;1.60;;
3549;SDS011;45572;48.804;8.330;2023-03-17T15:14:16;3.50;;;1.93;;
3549;SDS011;45572;48.804;8.330;2023-03-17T15:16:54;3.10;;;1.90;;
3549;SDS011;45572;48.804;8.330;2023-03-17T15:19:23;4.33;;;1.87;;
3549;SDS011;45572;48.804;8.330;2023-03-17T15:21:54;3.67;;;2.20;;
3549;SDS011;45572;48.804;8.330;2023-03-17T15:24:29;6.37;;;4.20;;
3549;SDS011;45572;48.804;8.330;2023-03-17T15:27:02;3.60;;;1.50;;
3549;SDS011;45572;48.804;8.330;2023-03-17T15:29:32;5.70;;;1.93;;
3549;SDS011;45572;48.804;8.330;2023-03-17T15:32:01;2.47;;;1.60;;
3549;SDS011;45572;48.804;8.330;2023-03-17T15:34:37;2.63;;;1.90;;
3549;SDS011;45572;48.804;8.330;2023-03-17T15:37:08;4.00;;;2.10;;
3549;SDS011;45572;48.804;8.330;2023-03-17T15:39:41;5.37;;;2.20;;
3549;SDS011;45572;48.804;8.330;2023-03-17T15:42:10;8.40;;;2.43;;